sensor_id;sensor_type;location;lat;lon;timestamp;P1;durP1;ratioP1;P2;durP2;ratioP2
81697;SDS011;71109;52.514;5.708;2023-09-08T00:01:11;14.97;;;8.87;;
81697;SDS011;71109;52.514;5.708;2023-09-08T00:03:37;15.27;;;8.97;;
81697;SDS011;71109;52.514;5.708;2023-09-08T00:06:02;13.20;;;9.10;;
81697;SDS011;71109;52.514;5.708;2023-09-08T00:08:27;16.70;;;10.00;;
81697;SDS011;71109;52.514;5.708;2023-09-08T00:10:53;15.88;;;8.77;;
81697;SDS011;71109;52.514;5.708;2023-09-08T00:13:18;17.48;;;9.88;;
81697;SDS011;71109;52.514;5.708;2023-09-08T00:15:44;18.90;;;10.48;;
81697;SDS011;71109;52.514;5.708;2023-09-08T00:18:09;19.50;;;9.55;;
81697;SDS011;71109;52.514;5.708;2023-09-08T00:20:34;20.75;;;10.75;;
81697;SDS011;71109;52.514;5.708;2023-09-08T00:23:01;14.50;;;8.82;;
81697;SDS011;71109;52.514;5.708;2023-09-08T00:25:26;15.63;;;9.17;;
81697;SDS011;71109;52.514;5.708;2023-09-08T00:27:51;19.30;;;11.50;;
81697;SDS011;71109;52.514;5.708;2023-09-08T00:30:17;16.83;;;9.70;;
81697;SDS011;71109;52.514;5.708;2023-09-08T00:32:42;21.50;;;9.82;;
81697;SDS011;71109;52.514;5.708;2023-09-08T00:35:08;20.17;;;10.93;;
81697;SDS011;71109;52.514;5.708;2023-09-08T00:37:37;15.15;;;9.68;;
81697;SDS011;71109;52.514;5.708;2023-09-08T00:40:02;14.77;;;9.18;;
81697;SDS011;71109;52.514;5.708;2023-09-08T00:42:27;24.20;;;10.00;;
81697;SDS011;71109;52.514;5.708;2023-09-08T00:44:53;15.87;;;8.77;;
81697;SDS011;71109;52.514;5.708;2023-09-08T00:47:18;15.98;;;9.40;;
81697;SDS011;71109;52.514;5.708;2023-09-08T00:49:44;19.37;;;10.30;;
81697;SDS011;71109;52.514;5.708;2023-09-08T00:52:09;14.23;;;9.52;;
81697;SDS011;71109;52.514;5.708;2023-09-08T00:54:34;15.15;;;9.95;;
81697;SDS011;71109;52.514;5.708;2023-09-08T00:57:01;17.00;;;10.20;;
81697;SDS011;71109;52.514;5.708;2023-09-08T00:59:28;20.20;;;11.10;;
81697;SDS011;71109;52.514;5.708;2023-09-08T01:01:55;17.65;;;8.75;;
81697;SDS011;71109;52.514;5.708;2023-09-08T01:04:20;16.00;;;10.00;;
81697;SDS011;71109;52.514;5.708;2023-09-08T01:06:46;18.05;;;10.40;;
81697;SDS011;71109;52.514;5.708;2023-09-08T01:09:12;17.10;;;9.52;;
81697;SDS011;71109;52.514;5.708;2023-09-08T01:11:38;17.30;;;8.98;;
81697;SDS011;71109;52.514;5.708;2023-09-08T01:14:04;13.48;;;8.32;;
81697;SDS011;71109;52.514;5.708;2023-09-08T01:16:29;13.87;;;8.97;;
81697;SDS011;71109;52.514;5.708;2023-09-08T01:18:55;14.93;;;9.43;;
81697;SDS011;71109;52.514;5.708;2023-09-08T01:27:18;18.95;;;10.27;;
81697;SDS011;71109;52.514;5.708;2023-09-08T01:29:44;17.63;;;9.85;;
81697;SDS011;71109;52.514;5.708;2023-09-08T01:32:10;16.50;;;9.75;;
81697;SDS011;71109;52.514;5.708;2023-09-08T01:34:36;18.50;;;9.40;;
81697;SDS011;71109;52.514;5.708;2023-09-08T01:37:04;18.15;;;10.02;;
81697;SDS011;71109;52.514;5.708;2023-09-08T01:39:29;16.60;;;10.57;;
81697;SDS011;71109;52.514;5.708;2023-09-08T01:41:55;21.77;;;10.37;;
81697;SDS011;71109;52.514;5.708;2023-09-08T01:44:20;23.02;;;9.73;;
81697;SDS011;71109;52.514;5.708;2023-09-08T01:46:46;16.63;;;9.98;;
81697;SDS011;71109;52.514;5.708;2023-09-08T01:49:11;21.93;;;11.73;;
81697;SDS011;71109;52.514;5.708;2023-09-08T01:51:36;14.40;;;9.47;;
81697;SDS011;71109;52.514;5.708;2023-09-08T01:54:02;16.73;;;9.70;;
81697;SDS011;71109;52.514;5.708;2023-09-08T01:56:27;17.05;;;9.65;;
81697;SDS011;71109;52.514;5.708;2023-09-08T01:58:52;13.20;;;9.93;;
81697;SDS011;71109;52.514;5.708;2023-09-08T02:01:18;18.67;;;10.00;;
81697;SDS011;71109;52.514;5.708;2023-09-08T02:03:43;19.87;;;10.33;;
81697;SDS011;71109;52.514;5.708;2023-09-08T02:06:09;15.18;;;10.10;;
81697;SDS011;71109;52.514;5.708;2023-09-08T02:08:34;15.03;;;9.90;;
81697;SDS011;71109;52.514;5.708;2023-09-08T02:10:59;15.80;;;9.77;;
81697;SDS011;71109;52.514;5.708;2023-09-08T02:13:24;16.73;;;10.20;;
81697;SDS011;71109;52.514;5.708;2023-09-08T02:15:56;19.33;;;10.70;;
81697;SDS011;71109;52.514;5.708;2023-09-08T02:18:21;19.88;;;9.65;;
81697;SDS011;71109;52.514;5.708;2023-09-08T02:20:47;16.48;;;10.20;;
81697;SDS011;71109;52.514;5.708;2023-09-08T02:23:12;20.97;;;11.53;;
81697;SDS011;71109;52.514;5.708;2023-09-08T02:25:37;17.73;;;10.17;;
81697;SDS011;71109;52.514;5.708;2023-09-08T02:28:03;20.40;;;11.30;;
81697;SDS011;71109;52.514;5.708;2023-09-08T02:30:28;16.45;;;11.10;;
81697;SDS011;71109;52.514;5.708;2023-09-08T02:32:54;18.73;;;11.13;;
81697;SDS011;71109;52.514;5.708;2023-09-08T02:35:20;17.45;;;10.95;;
81697;SDS011;71109;52.514;5.708;2023-09-08T02:37:46;18.67;;;11.23;;
81697;SDS011;71109;52.514;5.708;2023-09-08T02:40:11;20.92;;;11.40;;
81697;SDS011;71109;52.514;5.708;2023-09-08T02:42:37;21.23;;;11.32;;
81697;SDS011;71109;52.514;5.708;2023-09-08T02:45:02;17.13;;;10.27;;
81697;SDS011;71109;52.514;5.708;2023-09-08T02:47:28;18.33;;;11.70;;
81697;SDS011;71109;52.514;5.708;2023-09-08T02:49:53;15.48;;;10.65;;
81697;SDS011;71109;52.514;5.708;2023-09-08T02:52:18;21.73;;;11.00;;
81697;SDS011;71109;52.514;5.708;2023-09-08T02:54:44;18.83;;;12.63;;
81697;SDS011;71109;52.514;5.708;2023-09-08T02:57:10;24.67;;;11.90;;
81697;SDS011;71109;52.514;5.708;2023-09-08T02:59:35;19.20;;;12.10;;
81697;SDS011;71109;52.514;5.708;2023-09-08T03:02:00;18.88;;;10.93;;
81697;SDS011;71109;52.514;5.708;2023-09-08T03:04:26;19.23;;;11.55;;
81697;SDS011;71109;52.514;5.708;2023-09-08T03:06:51;22.17;;;13.67;;
81697;SDS011;71109;52.514;5.708;2023-09-08T03:09:16;19.52;;;11.77;;
81697;SDS011;71109;52.514;5.708;2023-09-08T03:11:42;17.65;;;11.27;;
81697;SDS011;71109;52.514;5.708;2023-09-08T03:14:07;23.83;;;13.90;;
81697;SDS011;71109;52.514;5.708;2023-09-08T03:16:33;24.55;;;12.35;;
81697;SDS011;71109;52.514;5.708;2023-09-08T03:18:58;20.60;;;12.50;;
81697;SDS011;71109;52.514;5.708;2023-09-08T03:21:24;22.33;;;12.02;;
81697;SDS011;71109;52.514;5.708;2023-09-08T03:23:49;18.05;;;12.30;;
81697;SDS011;71109;52.514;5.708;2023-09-08T03:26:14;20.83;;;13.13;;
81697;SDS011;71109;52.514;5.708;2023-09-08T03:28:41;23.17;;;11.30;;
81697;SDS011;71109;52.514;5.708;2023-09-08T03:31:07;24.85;;;12.88;;
81697;SDS011;71109;52.514;5.708;2023-09-08T03:33:33;23.02;;;12.95;;
81697;SDS011;71109;52.514;5.708;2023-09-08T03:35:58;18.98;;;11.68;;
81697;SDS011;71109;52.514;5.708;2023-09-08T03:38:23;22.00;;;13.82;;
81697;SDS011;71109;52.514;5.708;2023-09-08T03:40:49;19.90;;;12.85;;
81697;SDS011;71109;52.514;5.708;2023-09-08T03:43:14;24.05;;;14.15;;
81697;SDS011;71109;52.514;5.708;2023-09-08T03:45:40;19.00;;;12.65;;
81697;SDS011;71109;52.514;5.708;2023-09-08T03:48:05;18.90;;;11.93;;
81697;SDS011;71109;52.514;5.708;2023-09-08T03:50:31;23.50;;;12.25;;
81697;SDS011;71109;52.514;5.708;2023-09-08T03:52:56;23.67;;;13.82;;
81697;SDS011;71109;52.514;5.708;2023-09-08T03:55:22;23.50;;;13.75;;
81697;SDS011;71109;52.514;5.708;2023-09-08T03:57:47;20.65;;;12.70;;
81697;SDS011;71109;52.514;5.708;2023-09-08T04:00:13;23.40;;;13.02;;
81697;SDS011;71109;52.514;5.708;2023-09-08T04:02:44;23.20;;;13.32;;
81697;SDS011;71109;52.514;5.708;2023-09-08T04:05:09;29.20;;;13.27;;
81697;SDS011;71109;52.514;5.708;2023-09-08T04:07:35;22.77;;;13.80;;
81697;SDS011;71109;52.514;5.708;2023-09-08T04:10:01;27.90;;;14.17;;
81697;SDS011;71109;52.514;5.708;2023-09-08T04:12:26;21.55;;;13.45;;
81697;SDS011;71109;52.514;5.708;2023-09-08T04:14:52;20.15;;;13.00;;
81697;SDS011;71109;52.514;5.708;2023-09-08T04:17:17;21.73;;;13.23;;
81697;SDS011;71109;52.514;5.708;2023-09-08T04:19:43;22.00;;;13.60;;
81697;SDS011;71109;52.514;5.708;2023-09-08T04:22:08;21.77;;;13.90;;
81697;SDS011;71109;52.514;5.708;2023-09-08T04:24:35;22.20;;;13.45;;
81697;SDS011;71109;52.514;5.708;2023-09-08T04:27:01;25.60;;;14.68;;
81697;SDS011;71109;52.514;5.708;2023-09-08T04:29:26;22.60;;;14.05;;
81697;SDS011;71109;52.514;5.708;2023-09-08T04:31:52;24.53;;;13.20;;
81697;SDS011;71109;52.514;5.708;2023-09-08T04:34:17;25.83;;;13.47;;
81697;SDS011;71109;52.514;5.708;2023-09-08T04:36:43;30.55;;;13.65;;
81697;SDS011;71109;52.514;5.708;2023-09-08T04:39:08;17.92;;;11.77;;
81697;SDS011;71109;52.514;5.708;2023-09-08T04:41:36;21.13;;;12.77;;
81697;SDS011;71109;52.514;5.708;2023-09-08T04:44:01;21.10;;;13.73;;
81697;SDS011;71109;52.514;5.708;2023-09-08T04:46:27;31.60;;;14.25;;
81697;SDS011;71109;52.514;5.708;2023-09-08T04:48:52;25.30;;;13.83;;
81697;SDS011;71109;52.514;5.708;2023-09-08T04:51:17;26.00;;;14.40;;
81697;SDS011;71109;52.514;5.708;2023-09-08T04:53:43;25.83;;;14.30;;
81697;SDS011;71109;52.514;5.708;2023-09-08T04:56:09;24.37;;;13.57;;
81697;SDS011;71109;52.514;5.708;2023-09-08T04:58:34;23.65;;;14.50;;
81697;SDS011;71109;52.514;5.708;2023-09-08T05:01:00;21.80;;;14.07;;
81697;SDS011;71109;52.514;5.708;2023-09-08T05:03:25;26.43;;;14.37;;
81697;SDS011;71109;52.514;5.708;2023-09-08T05:05:51;29.50;;;14.85;;
81697;SDS011;71109;52.514;5.708;2023-09-08T05:08:16;24.58;;;12.88;;
81697;SDS011;71109;52.514;5.708;2023-09-08T05:10:43;23.35;;;14.20;;
81697;SDS011;71109;52.514;5.708;2023-09-08T05:13:09;27.08;;;15.00;;
81697;SDS011;71109;52.514;5.708;2023-09-08T05:15:34;21.35;;;13.35;;
81697;SDS011;71109;52.514;5.708;2023-09-08T05:18:00;28.45;;;15.25;;
81697;SDS011;71109;52.514;5.708;2023-09-08T05:20:25;26.10;;;14.75;;
81697;SDS011;71109;52.514;5.708;2023-09-08T05:22:51;26.85;;;14.57;;
81697;SDS011;71109;52.514;5.708;2023-09-08T05:25:16;27.75;;;15.40;;
81697;SDS011;71109;52.514;5.708;2023-09-08T05:27:42;22.77;;;14.18;;
81697;SDS011;71109;52.514;5.708;2023-09-08T05:30:07;21.40;;;13.65;;
81697;SDS011;71109;52.514;5.708;2023-09-08T05:32:33;22.27;;;13.55;;
81697;SDS011;71109;52.514;5.708;2023-09-08T05:34:59;31.75;;;15.70;;
81697;SDS011;71109;52.514;5.708;2023-09-08T05:37:24;21.08;;;13.90;;
81697;SDS011;71109;52.514;5.708;2023-09-08T05:39:49;28.15;;;15.65;;
81697;SDS011;71109;52.514;5.708;2023-09-08T05:42:15;34.40;;;16.00;;
81697;SDS011;71109;52.514;5.708;2023-09-08T05:44:40;24.58;;;14.55;;
81697;SDS011;71109;52.514;5.708;2023-09-08T05:47:06;32.30;;;15.00;;
81697;SDS011;71109;52.514;5.708;2023-09-08T05:49:31;22.52;;;12.68;;
81697;SDS011;71109;52.514;5.708;2023-09-08T05:51:56;24.37;;;14.97;;
81697;SDS011;71109;52.514;5.708;2023-09-08T05:54:22;31.33;;;15.55;;
81697;SDS011;71109;52.514;5.708;2023-09-08T05:56:47;26.80;;;16.33;;
81697;SDS011;71109;52.514;5.708;2023-09-08T05:59:12;26.43;;;14.47;;
81697;SDS011;71109;52.514;5.708;2023-09-08T06:01:38;22.50;;;13.93;;
81697;SDS011;71109;52.514;5.708;2023-09-08T06:04:03;28.92;;;15.48;;
81697;SDS011;71109;52.514;5.708;2023-09-08T06:06:29;22.48;;;13.38;;
81697;SDS011;71109;52.514;5.708;2023-09-08T06:08:54;27.20;;;15.43;;
81697;SDS011;71109;52.514;5.708;2023-09-08T06:11:19;29.02;;;15.25;;
81697;SDS011;71109;52.514;5.708;2023-09-08T06:13:45;25.73;;;14.68;;
81697;SDS011;71109;52.514;5.708;2023-09-08T06:16:10;26.05;;;15.35;;
81697;SDS011;71109;52.514;5.708;2023-09-08T06:18:36;27.40;;;15.77;;
81697;SDS011;71109;52.514;5.708;2023-09-08T06:21:08;27.38;;;16.40;;
81697;SDS011;71109;52.514;5.708;2023-09-08T06:23:34;29.58;;;16.30;;
81697;SDS011;71109;52.514;5.708;2023-09-08T06:26:00;28.38;;;16.58;;
81697;SDS011;71109;52.514;5.708;2023-09-08T06:28:26;25.17;;;15.45;;
81697;SDS011;71109;52.514;5.708;2023-09-08T06:30:52;25.95;;;14.95;;
81697;SDS011;71109;52.514;5.708;2023-09-08T06:33:18;25.70;;;15.55;;
81697;SDS011;71109;52.514;5.708;2023-09-08T06:35:43;24.53;;;15.47;;
81697;SDS011;71109;52.514;5.708;2023-09-08T06:38:09;26.70;;;15.30;;
81697;SDS011;71109;52.514;5.708;2023-09-08T06:40:34;24.98;;;15.18;;
81697;SDS011;71109;52.514;5.708;2023-09-08T06:43:00;27.75;;;15.60;;
81697;SDS011;71109;52.514;5.708;2023-09-08T06:45:26;21.55;;;14.73;;
81697;SDS011;71109;52.514;5.708;2023-09-08T06:47:52;29.67;;;16.58;;
81697;SDS011;71109;52.514;5.708;2023-09-08T06:50:20;28.10;;;16.25;;
81697;SDS011;71109;52.514;5.708;2023-09-08T06:52:46;26.08;;;14.93;;
81697;SDS011;71109;52.514;5.708;2023-09-08T06:55:12;26.88;;;14.55;;
81697;SDS011;71109;52.514;5.708;2023-09-08T06:57:38;22.58;;;14.52;;
81697;SDS011;71109;52.514;5.708;2023-09-08T07:00:04;29.53;;;16.07;;
81697;SDS011;71109;52.514;5.708;2023-09-08T07:02:31;29.35;;;15.70;;
81697;SDS011;71109;52.514;5.708;2023-09-08T07:04:57;24.53;;;14.83;;
81697;SDS011;71109;52.514;5.708;2023-09-08T07:07:22;26.53;;;16.27;;
81697;SDS011;71109;52.514;5.708;2023-09-08T07:09:48;30.45;;;17.15;;
81697;SDS011;71109;52.514;5.708;2023-09-08T07:12:13;25.92;;;14.52;;
81697;SDS011;71109;52.514;5.708;2023-09-08T07:14:39;31.38;;;16.65;;
81697;SDS011;71109;52.514;5.708;2023-09-08T07:17:04;33.50;;;18.77;;
81697;SDS011;71109;52.514;5.708;2023-09-08T07:19:29;28.43;;;17.00;;
81697;SDS011;71109;52.514;5.708;2023-09-08T07:21:55;28.47;;;16.23;;
81697;SDS011;71109;52.514;5.708;2023-09-08T07:24:20;24.02;;;15.25;;
81697;SDS011;71109;52.514;5.708;2023-09-08T07:26:46;26.20;;;14.65;;
81697;SDS011;71109;52.514;5.708;2023-09-08T07:29:11;29.13;;;15.53;;
81697;SDS011;71109;52.514;5.708;2023-09-08T07:31:37;40.30;;;16.20;;
81697;SDS011;71109;52.514;5.708;2023-09-08T07:34:03;26.40;;;16.27;;
81697;SDS011;71109;52.514;5.708;2023-09-08T07:36:28;29.90;;;15.77;;
81697;SDS011;71109;52.514;5.708;2023-09-08T07:38:54;29.55;;;15.20;;
81697;SDS011;71109;52.514;5.708;2023-09-08T07:41:19;29.90;;;15.80;;
81697;SDS011;71109;52.514;5.708;2023-09-08T07:43:45;28.27;;;16.50;;
81697;SDS011;71109;52.514;5.708;2023-09-08T07:46:10;26.50;;;15.63;;
81697;SDS011;71109;52.514;5.708;2023-09-08T07:48:36;32.72;;;14.20;;
81697;SDS011;71109;52.514;5.708;2023-09-08T07:51:01;26.95;;;14.75;;
81697;SDS011;71109;52.514;5.708;2023-09-08T07:53:27;24.00;;;13.73;;
81697;SDS011;71109;52.514;5.708;2023-09-08T07:55:52;26.27;;;15.60;;
81697;SDS011;71109;52.514;5.708;2023-09-08T07:58:18;22.52;;;14.52;;
81697;SDS011;71109;52.514;5.708;2023-09-08T08:00:43;23.65;;;13.68;;
81697;SDS011;71109;52.514;5.708;2023-09-08T08:03:08;27.55;;;13.63;;
81697;SDS011;71109;52.514;5.708;2023-09-08T08:05:34;26.48;;;14.48;;
81697;SDS011;71109;52.514;5.708;2023-09-08T08:07:59;21.13;;;14.07;;
81697;SDS011;71109;52.514;5.708;2023-09-08T08:10:25;28.20;;;13.43;;
81697;SDS011;71109;52.514;5.708;2023-09-08T08:12:51;23.45;;;12.95;;
81697;SDS011;71109;52.514;5.708;2023-09-08T08:15:18;19.97;;;12.30;;
81697;SDS011;71109;52.514;5.708;2023-09-08T08:17:44;20.75;;;13.25;;
81697;SDS011;71109;52.514;5.708;2023-09-08T08:20:10;21.60;;;12.70;;
81697;SDS011;71109;52.514;5.708;2023-09-08T08:22:41;18.77;;;11.45;;
81697;SDS011;71109;52.514;5.708;2023-09-08T08:25:07;17.63;;;11.02;;
81697;SDS011;71109;52.514;5.708;2023-09-08T08:27:33;27.25;;;11.52;;
81697;SDS011;71109;52.514;5.708;2023-09-08T08:29:59;19.80;;;11.43;;
81697;SDS011;71109;52.514;5.708;2023-09-08T08:32:26;29.48;;;12.75;;
81697;SDS011;71109;52.514;5.708;2023-09-08T08:34:51;19.30;;;11.48;;
81697;SDS011;71109;52.514;5.708;2023-09-08T08:37:17;21.88;;;13.05;;
81697;SDS011;71109;52.514;5.708;2023-09-08T08:39:43;20.13;;;12.45;;
81697;SDS011;71109;52.514;5.708;2023-09-08T08:42:11;23.17;;;13.63;;
81697;SDS011;71109;52.514;5.708;2023-09-08T08:44:37;22.85;;;11.55;;
81697;SDS011;71109;52.514;5.708;2023-09-08T08:47:03;22.05;;;13.10;;
81697;SDS011;71109;52.514;5.708;2023-09-08T08:49:31;20.05;;;11.40;;
81697;SDS011;71109;52.514;5.708;2023-09-08T08:51:58;22.75;;;12.52;;
81697;SDS011;71109;52.514;5.708;2023-09-08T08:54:24;22.52;;;12.13;;
81697;SDS011;71109;52.514;5.708;2023-09-08T08:56:50;21.73;;;12.52;;
81697;SDS011;71109;52.514;5.708;2023-09-08T08:59:15;18.08;;;12.15;;
81697;SDS011;71109;52.514;5.708;2023-09-08T09:01:41;19.13;;;11.27;;
81697;SDS011;71109;52.514;5.708;2023-09-08T09:04:07;18.83;;;11.60;;
81697;SDS011;71109;52.514;5.708;2023-09-08T09:06:34;22.95;;;13.05;;
81697;SDS011;71109;52.514;5.708;2023-09-08T09:08:59;22.65;;;12.68;;
81697;SDS011;71109;52.514;5.708;2023-09-08T09:11:25;19.80;;;11.50;;
81697;SDS011;71109;52.514;5.708;2023-09-08T09:13:51;19.83;;;12.63;;
81697;SDS011;71109;52.514;5.708;2023-09-08T09:16:16;20.03;;;13.23;;
81697;SDS011;71109;52.514;5.708;2023-09-08T09:18:57;20.63;;;11.48;;
81697;SDS011;71109;52.514;5.708;2023-09-08T09:21:24;15.02;;;9.73;;
81697;SDS011;71109;52.514;5.708;2023-09-08T09:24:05;24.35;;;9.82;;
81697;SDS011;71109;52.514;5.708;2023-09-08T09:26:31;23.92;;;11.35;;
81697;SDS011;71109;52.514;5.708;2023-09-08T09:28:56;20.67;;;10.53;;
81697;SDS011;71109;52.514;5.708;2023-09-08T09:31:24;17.42;;;10.70;;
81697;SDS011;71109;52.514;5.708;2023-09-08T09:34:03;14.38;;;10.45;;
81697;SDS011;71109;52.514;5.708;2023-09-08T09:36:32;16.30;;;11.52;;
81697;SDS011;71109;52.514;5.708;2023-09-08T09:38:58;17.67;;;10.48;;
81697;SDS011;71109;52.514;5.708;2023-09-08T09:41:27;15.95;;;10.30;;
81697;SDS011;71109;52.514;5.708;2023-09-08T09:43:54;17.27;;;10.18;;
81697;SDS011;71109;52.514;5.708;2023-09-08T09:46:20;22.60;;;11.65;;
81697;SDS011;71109;52.514;5.708;2023-09-08T09:48:47;14.98;;;10.55;;
81697;SDS011;71109;52.514;5.708;2023-09-08T09:51:17;15.98;;;10.68;;
81697;SDS011;71109;52.514;5.708;2023-09-08T09:53:44;19.83;;;9.65;;
81697;SDS011;71109;52.514;5.708;2023-09-08T09:56:10;19.98;;;10.68;;
81697;SDS011;71109;52.514;5.708;2023-09-08T09:58:36;14.43;;;10.20;;
81697;SDS011;71109;52.514;5.708;2023-09-08T10:01:02;18.17;;;10.80;;
81697;SDS011;71109;52.514;5.708;2023-09-08T10:03:29;14.05;;;9.35;;
81697;SDS011;71109;52.514;5.708;2023-09-08T10:05:55;14.38;;;9.82;;
81697;SDS011;71109;52.514;5.708;2023-09-08T10:08:21;14.40;;;9.57;;
81697;SDS011;71109;52.514;5.708;2023-09-08T10:10:47;16.23;;;9.77;;
81697;SDS011;71109;52.514;5.708;2023-09-08T10:13:13;17.40;;;9.65;;
81697;SDS011;71109;52.514;5.708;2023-09-08T10:15:39;15.75;;;9.25;;
81697;SDS011;71109;52.514;5.708;2023-09-08T10:18:05;19.95;;;9.85;;
81697;SDS011;71109;52.514;5.708;2023-09-08T10:20:30;14.93;;;8.98;;
81697;SDS011;71109;52.514;5.708;2023-09-08T10:25:44;9.73;;;8.18;;
81697;SDS011;71109;52.514;5.708;2023-09-08T10:28:15;15.55;;;9.75;;
81697;SDS011;71109;52.514;5.708;2023-09-08T10:30:41;17.27;;;9.35;;
81697;SDS011;71109;52.514;5.708;2023-09-08T10:33:06;12.82;;;8.43;;
81697;SDS011;71109;52.514;5.708;2023-09-08T10:35:32;10.45;;;7.43;;
81697;SDS011;71109;52.514;5.708;2023-09-08T10:38:20;15.95;;;8.73;;
81697;SDS011;71109;52.514;5.708;2023-09-08T10:40:52;14.30;;;8.32;;
81697;SDS011;71109;52.514;5.708;2023-09-08T10:43:37;13.32;;;8.48;;
81697;SDS011;71109;52.514;5.708;2023-09-08T10:46:07;14.65;;;8.50;;
81697;SDS011;71109;52.514;5.708;2023-09-08T10:48:39;13.90;;;8.88;;
81697;SDS011;71109;52.514;5.708;2023-09-08T10:51:06;18.13;;;8.68;;
81697;SDS011;71109;52.514;5.708;2023-09-08T10:53:38;14.50;;;8.48;;
81697;SDS011;71109;52.514;5.708;2023-09-08T10:56:04;14.77;;;8.48;;
81697;SDS011;71109;52.514;5.708;2023-09-08T10:58:30;10.40;;;7.47;;
81697;SDS011;71109;52.514;5.708;2023-09-08T11:01:01;12.45;;;7.80;;
81697;SDS011;71109;52.514;5.708;2023-09-08T11:03:48;13.02;;;7.78;;
81697;SDS011;71109;52.514;5.708;2023-09-08T11:06:15;17.08;;;7.80;;
81697;SDS011;71109;52.514;5.708;2023-09-08T11:08:42;15.90;;;8.90;;
81697;SDS011;71109;52.514;5.708;2023-09-08T11:11:09;17.25;;;7.78;;
81697;SDS011;71109;52.514;5.708;2023-09-08T11:13:35;11.18;;;7.95;;
81697;SDS011;71109;52.514;5.708;2023-09-08T11:16:01;14.82;;;8.30;;
81697;SDS011;71109;52.514;5.708;2023-09-08T11:18:30;11.35;;;7.70;;
81697;SDS011;71109;52.514;5.708;2023-09-08T11:20:57;9.35;;;7.13;;
81697;SDS011;71109;52.514;5.708;2023-09-08T11:23:23;10.73;;;6.53;;
81697;SDS011;71109;52.514;5.708;2023-09-08T11:25:52;11.68;;;7.05;;
81697;SDS011;71109;52.514;5.708;2023-09-08T11:28:18;11.10;;;6.90;;
81697;SDS011;71109;52.514;5.708;2023-09-08T11:30:46;14.80;;;6.93;;
81697;SDS011;71109;52.514;5.708;2023-09-08T11:33:15;8.27;;;6.15;;
81697;SDS011;71109;52.514;5.708;2023-09-08T11:35:47;10.07;;;6.80;;
81697;SDS011;71109;52.514;5.708;2023-09-08T11:38:13;14.68;;;7.25;;
81697;SDS011;71109;52.514;5.708;2023-09-08T11:40:39;13.13;;;7.40;;
81697;SDS011;71109;52.514;5.708;2023-09-08T11:43:05;10.23;;;6.70;;
81697;SDS011;71109;52.514;5.708;2023-09-08T11:45:31;13.90;;;7.28;;
81697;SDS011;71109;52.514;5.708;2023-09-08T11:47:59;11.93;;;6.63;;
81697;SDS011;71109;52.514;5.708;2023-09-08T11:50:25;13.25;;;6.75;;
81697;SDS011;71109;52.514;5.708;2023-09-08T11:52:51;7.90;;;6.78;;
81697;SDS011;71109;52.514;5.708;2023-09-08T11:55:18;11.05;;;6.78;;
81697;SDS011;71109;52.514;5.708;2023-09-08T11:57:45;9.43;;;6.75;;
81697;SDS011;71109;52.514;5.708;2023-09-08T12:00:11;15.70;;;6.40;;
81697;SDS011;71109;52.514;5.708;2023-09-08T12:02:41;14.57;;;6.35;;
81697;SDS011;71109;52.514;5.708;2023-09-08T12:05:28;13.50;;;6.85;;
81697;SDS011;71109;52.514;5.708;2023-09-08T12:07:54;10.85;;;6.05;;
81697;SDS011;71109;52.514;5.708;2023-09-08T12:10:21;11.40;;;6.20;;
81697;SDS011;71109;52.514;5.708;2023-09-08T12:12:50;8.82;;;6.82;;
81697;SDS011;71109;52.514;5.708;2023-09-08T12:18:02;15.10;;;6.28;;
81697;SDS011;71109;52.514;5.708;2023-09-08T12:20:29;14.10;;;6.88;;
81697;SDS011;71109;52.514;5.708;2023-09-08T12:22:56;11.27;;;6.70;;
81697;SDS011;71109;52.514;5.708;2023-09-08T12:25:24;10.25;;;6.13;;
81697;SDS011;71109;52.514;5.708;2023-09-08T12:27:49;11.18;;;6.38;;
81697;SDS011;71109;52.514;5.708;2023-09-08T12:30:16;6.95;;;5.55;;
81697;SDS011;71109;52.514;5.708;2023-09-08T12:32:44;14.55;;;6.13;;
81697;SDS011;71109;52.514;5.708;2023-09-08T12:35:10;10.02;;;6.30;;
81697;SDS011;71109;52.514;5.708;2023-09-08T12:37:36;13.20;;;5.53;;
81697;SDS011;71109;52.514;5.708;2023-09-08T12:40:03;9.15;;;4.47;;
81697;SDS011;71109;52.514;5.708;2023-09-08T12:42:29;12.75;;;5.82;;
81697;SDS011;71109;52.514;5.708;2023-09-08T12:44:55;8.07;;;5.60;;
81697;SDS011;71109;52.514;5.708;2023-09-08T12:47:21;11.85;;;5.50;;
81697;SDS011;71109;52.514;5.708;2023-09-08T12:49:46;10.13;;;4.78;;
81697;SDS011;71109;52.514;5.708;2023-09-08T12:52:11;10.48;;;5.85;;
81697;SDS011;71109;52.514;5.708;2023-09-08T12:54:37;13.48;;;5.55;;
81697;SDS011;71109;52.514;5.708;2023-09-08T12:57:02;10.43;;;6.18;;
81697;SDS011;71109;52.514;5.708;2023-09-08T12:59:28;7.00;;;5.30;;
81697;SDS011;71109;52.514;5.708;2023-09-08T13:01:54;9.32;;;4.78;;
81697;SDS011;71109;52.514;5.708;2023-09-08T13:04:20;9.07;;;5.35;;
81697;SDS011;71109;52.514;5.708;2023-09-08T13:06:45;9.40;;;5.60;;
81697;SDS011;71109;52.514;5.708;2023-09-08T13:09:10;10.57;;;5.47;;
81697;SDS011;71109;52.514;5.708;2023-09-08T13:11:36;8.73;;;5.22;;
81697;SDS011;71109;52.514;5.708;2023-09-08T13:14:01;11.52;;;5.85;;
81697;SDS011;71109;52.514;5.708;2023-09-08T13:16:27;10.43;;;5.70;;
81697;SDS011;71109;52.514;5.708;2023-09-08T13:18:52;8.93;;;5.57;;
81697;SDS011;71109;52.514;5.708;2023-09-08T13:21:17;10.38;;;6.05;;
81697;SDS011;71109;52.514;5.708;2023-09-08T13:23:43;10.85;;;6.25;;
81697;SDS011;71109;52.514;5.708;2023-09-08T13:26:08;9.50;;;5.43;;
81697;SDS011;71109;52.514;5.708;2023-09-08T13:28:33;9.30;;;5.43;;
81697;SDS011;71109;52.514;5.708;2023-09-08T13:30:59;11.75;;;5.40;;
81697;SDS011;71109;52.514;5.708;2023-09-08T13:33:24;12.60;;;5.67;;
81697;SDS011;71109;52.514;5.708;2023-09-08T13:35:49;14.38;;;5.57;;
81697;SDS011;71109;52.514;5.708;2023-09-08T13:38:15;8.87;;;5.20;;
81697;SDS011;71109;52.514;5.708;2023-09-08T13:40:40;11.10;;;4.82;;
81697;SDS011;71109;52.514;5.708;2023-09-08T13:43:06;9.68;;;4.63;;
81697;SDS011;71109;52.514;5.708;2023-09-08T13:45:32;8.38;;;4.72;;
81697;SDS011;71109;52.514;5.708;2023-09-08T13:47:57;14.13;;;5.10;;
81697;SDS011;71109;52.514;5.708;2023-09-08T13:50:22;7.30;;;5.30;;
81697;SDS011;71109;52.514;5.708;2023-09-08T13:52:48;14.23;;;5.65;;
81697;SDS011;71109;52.514;5.708;2023-09-08T13:55:17;6.45;;;4.90;;
81697;SDS011;71109;52.514;5.708;2023-09-08T13:57:48;8.48;;;5.78;;
81697;SDS011;71109;52.514;5.708;2023-09-08T14:00:14;13.27;;;6.00;;
81697;SDS011;71109;52.514;5.708;2023-09-08T14:02:39;10.38;;;6.25;;
81697;SDS011;71109;52.514;5.708;2023-09-08T14:05:05;11.95;;;6.05;;
81697;SDS011;71109;52.514;5.708;2023-09-08T14:07:31;15.93;;;5.88;;
81697;SDS011;71109;52.514;5.708;2023-09-08T14:09:56;9.07;;;6.20;;
81697;SDS011;71109;52.514;5.708;2023-09-08T14:12:23;23.23;;;7.30;;
81697;SDS011;71109;52.514;5.708;2023-09-08T14:14:49;11.90;;;6.47;;
81697;SDS011;71109;52.514;5.708;2023-09-08T14:17:14;11.13;;;6.38;;
81697;SDS011;71109;52.514;5.708;2023-09-08T14:19:40;10.27;;;6.25;;
81697;SDS011;71109;52.514;5.708;2023-09-08T14:22:05;9.53;;;6.67;;
81697;SDS011;71109;52.514;5.708;2023-09-08T14:24:30;13.20;;;5.93;;
81697;SDS011;71109;52.514;5.708;2023-09-08T14:26:56;12.55;;;6.32;;
81697;SDS011;71109;52.514;5.708;2023-09-08T14:29:21;10.50;;;5.90;;
81697;SDS011;71109;52.514;5.708;2023-09-08T14:31:48;15.77;;;6.72;;
81697;SDS011;71109;52.514;5.708;2023-09-08T14:34:13;14.40;;;7.35;;